sensor_id;sensor_type;location;lat;lon;timestamp;pressure;altitude;pressure_sealevel;temperature;humidity
49030;BME280;43337;52.070;4.508;2023-08-06T00:00:19;100556.53;;;14.52;100.00
49030;BME280;43337;52.070;4.508;2023-08-06T00:02:46;100563.53;;;14.53;100.00
49030;BME280;43337;52.070;4.508;2023-08-06T00:05:11;100583.13;;;14.65;100.00
49030;BME280;43337;52.070;4.508;2023-08-06T00:07:37;100566.56;;;14.61;100.00
49030;BME280;43337;52.070;4.508;2023-08-06T00:10:02;100551.88;;;14.56;100.00
49030;BME280;43337;52.070;4.508;2023-08-06T00:12:28;100562.19;;;14.60;100.00
49030;BME280;43337;52.070;4.508;2023-08-06T00:14:53;100555.50;;;14.55;100.00
49030;BME280;43337;52.070;4.508;2023-08-06T00:17:19;100553.59;;;14.57;100.00
49030;BME280;43337;52.070;4.508;2023-08-06T00:19:45;100585.34;;;14.71;100.00
49030;BME280;43337;52.070;4.508;2023-08-06T00:22:11;100581.00;;;14.70;100.00
49030;BME280;43337;52.070;4.508;2023-08-06T00:24:37;100582.69;;;14.71;100.00
49030;BME280;43337;52.070;4.508;2023-08-06T00:27:03;100563.97;;;14.60;100.00
49030;BME280;43337;52.070;4.508;2023-08-06T00:29:29;100566.56;;;14.61;100.00
49030;BME280;43337;52.070;4.508;2023-08-06T00:31:54;100576.56;;;14.71;100.00
49030;BME280;43337;52.070;4.508;2023-08-06T00:34:20;100555.59;;;14.53;100.00
49030;BME280;43337;52.070;4.508;2023-08-06T00:36:45;100598.31;;;14.76;100.00
49030;BME280;43337;52.070;4.508;2023-08-06T00:39:11;100552.00;;;14.54;100.00
49030;BME280;43337;52.070;4.508;2023-08-06T00:41:36;100555.31;;;14.58;100.00
49030;BME280;43337;52.070;4.508;2023-08-06T00:44:03;100561.34;;;14.60;100.00
49030;BME280;43337;52.070;4.508;2023-08-06T00:46:28;100574.44;;;14.76;100.00
49030;BME280;43337;52.070;4.508;2023-08-06T00:48:55;100559.34;;;14.63;100.00
49030;BME280;43337;52.070;4.508;2023-08-06T00:51:22;100582.50;;;14.74;100.00
49030;BME280;43337;52.070;4.508;2023-08-06T00:53:49;100558.50;;;14.63;100.00
49030;BME280;43337;52.070;4.508;2023-08-06T00:56:16;100565.75;;;14.74;100.00
49030;BME280;43337;52.070;4.508;2023-08-06T00:58:44;100568.03;;;14.80;100.00
49030;BME280;43337;52.070;4.508;2023-08-06T01:01:11;100581.84;;;14.85;100.00
49030;BME280;43337;52.070;4.508;2023-08-06T01:03:38;100561.69;;;14.68;100.00
49030;BME280;43337;52.070;4.508;2023-08-06T01:06:04;100565.28;;;14.67;100.00
49030;BME280;43337;52.070;4.508;2023-08-06T01:13:57;100575.88;;;14.81;100.00
49030;BME280;43337;52.070;4.508;2023-08-06T01:16:25;100559.69;;;14.72;100.00
49030;BME280;43337;52.070;4.508;2023-08-06T01:18:51;100557.28;;;14.69;100.00
49030;BME280;43337;52.070;4.508;2023-08-06T01:21:18;100530.88;;;14.53;100.00
49030;BME280;43337;52.070;4.508;2023-08-06T01:23:45;100588.94;;;14.84;100.00
49030;BME280;43337;52.070;4.508;2023-08-06T01:26:22;100564.91;;;14.73;100.00
49030;BME280;43337;52.070;4.508;2023-08-06T01:28:56;100601.13;;;14.87;100.00
49030;BME280;43337;52.070;4.508;2023-08-06T01:31:28;100594.97;;;14.86;100.00
49030;BME280;43337;52.070;4.508;2023-08-06T01:34:02;100555.78;;;14.64;100.00
49030;BME280;43337;52.070;4.508;2023-08-06T01:36:30;100595.94;;;14.85;100.00
49030;BME280;43337;52.070;4.508;2023-08-06T01:38:55;100598.59;;;14.85;100.00
49030;BME280;43337;52.070;4.508;2023-08-06T01:41:23;100587.81;;;14.74;100.00
49030;BME280;43337;52.070;4.508;2023-08-06T01:43:50;100568.06;;;14.65;100.00
49030;BME280;43337;52.070;4.508;2023-08-06T01:46:15;100594.81;;;14.75;100.00
49030;BME280;43337;52.070;4.508;2023-08-06T01:48:41;100592.06;;;14.77;100.00
49030;BME280;43337;52.070;4.508;2023-08-06T01:51:06;100608.41;;;14.83;100.00
49030;BME280;43337;52.070;4.508;2023-08-06T01:53:32;100585.53;;;14.68;100.00
49030;BME280;43337;52.070;4.508;2023-08-06T01:55:58;100603.53;;;14.77;100.00
49030;BME280;43337;52.070;4.508;2023-08-06T01:58:23;100589.06;;;14.69;100.00
49030;BME280;43337;52.070;4.508;2023-08-06T02:00:49;100620.75;;;14.84;100.00
49030;BME280;43337;52.070;4.508;2023-08-06T02:03:14;100613.72;;;14.83;100.00
49030;BME280;43337;52.070;4.508;2023-08-06T02:05:40;100612.78;;;14.84;100.00
49030;BME280;43337;52.070;4.508;2023-08-06T02:08:06;100612.31;;;14.78;100.00
49030;BME280;43337;52.070;4.508;2023-08-06T02:10:32;100591.78;;;14.67;100.00
49030;BME280;43337;52.070;4.508;2023-08-06T02:12:58;100594.44;;;14.67;100.00
49030;BME280;43337;52.070;4.508;2023-08-06T02:15:23;100595.28;;;14.68;100.00
49030;BME280;43337;52.070;4.508;2023-08-06T02:17:48;100602.22;;;14.70;100.00
49030;BME280;43337;52.070;4.508;2023-08-06T02:20:14;100597.09;;;14.67;100.00
49030;BME280;43337;52.070;4.508;2023-08-06T02:22:39;100613.28;;;14.77;100.00
49030;BME280;43337;52.070;4.508;2023-08-06T02:25:05;100604.97;;;14.69;100.00
49030;BME280;43337;52.070;4.508;2023-08-06T02:27:30;100606.66;;;14.70;100.00
49030;BME280;43337;52.070;4.508;2023-08-06T02:29:58;100608.34;;;14.71;100.00
49030;BME280;43337;52.070;4.508;2023-08-06T02:32:24;100615.75;;;14.80;100.00
49030;BME280;43337;52.070;4.508;2023-08-06T02:34:50;100582.09;;;14.53;100.00
49030;BME280;43337;52.070;4.508;2023-08-06T02:37:16;100598.53;;;14.73;100.00
49030;BME280;43337;52.070;4.508;2023-08-06T02:39:41;100603.16;;;14.69;100.00
49030;BME280;43337;52.070;4.508;2023-08-06T02:42:07;100594.75;;;14.62;100.00
49030;BME280;43337;52.070;4.508;2023-08-06T02:44:33;100620.28;;;14.78;100.00
49030;BME280;43337;52.070;4.508;2023-08-06T02:46:59;100623.69;;;14.80;100.00
49030;BME280;43337;52.070;4.508;2023-08-06T02:49:24;100608.53;;;14.68;100.00
49030;BME280;43337;52.070;4.508;2023-08-06T02:51:51;100634.19;;;14.81;100.00
49030;BME280;43337;52.070;4.508;2023-08-06T02:54:18;100637.97;;;14.77;100.00
49030;BME280;43337;52.070;4.508;2023-08-06T02:56:47;100604.03;;;14.55;100.00
49030;BME280;43337;52.070;4.508;2023-08-06T02:59:16;100636.38;;;14.75;100.00
49030;BME280;43337;52.070;4.508;2023-08-06T03:01:41;100639.00;;;14.75;100.00
49030;BME280;43337;52.070;4.508;2023-08-06T03:04:07;100587.25;;;14.40;100.00
49030;BME280;43337;52.070;4.508;2023-08-06T03:06:32;100644.25;;;14.76;100.00
49030;BME280;43337;52.070;4.508;2023-08-06T03:08:58;100608.59;;;14.53;100.00
49030;BME280;43337;52.070;4.508;2023-08-06T03:11:24;100634.84;;;14.71;100.00
49030;BME280;43337;52.070;4.508;2023-08-06T03:13:50;100639.59;;;14.65;100.00
49030;BME280;43337;52.070;4.508;2023-08-06T03:16:15;100624.19;;;14.58;100.00
49030;BME280;43337;52.070;4.508;2023-08-06T03:18:40;100613.66;;;14.56;100.00
49030;BME280;43337;52.070;4.508;2023-08-06T03:21:06;100590.75;;;14.41;100.00
49030;BME280;43337;52.070;4.508;2023-08-06T03:23:31;100646.41;;;14.70;100.00
49030;BME280;43337;52.070;4.508;2023-08-06T03:26:03;100638.53;;;14.68;100.00
49030;BME280;43337;52.070;4.508;2023-08-06T03:28:28;100625.16;;;14.57;100.00
49030;BME280;43337;52.070;4.508;2023-08-06T03:31:03;100637.31;;;14.59;100.00
49030;BME280;43337;52.070;4.508;2023-08-06T03:33:30;100584.16;;;14.34;100.00
49030;BME280;43337;52.070;4.508;2023-08-06T03:35:56;100630.50;;;14.55;100.00
49030;BME280;43337;52.070;4.508;2023-08-06T03:38:21;100644.31;;;14.60;100.00
49030;BME280;43337;52.070;4.508;2023-08-06T03:40:47;100627.09;;;14.39;100.00
49030;BME280;43337;52.070;4.508;2023-08-06T03:43:13;100636.66;;;14.41;100.00
49030;BME280;43337;52.070;4.508;2023-08-06T03:45:38;100619.50;;;14.33;100.00
49030;BME280;43337;52.070;4.508;2023-08-06T03:48:05;100663.56;;;14.50;100.00
49030;BME280;43337;52.070;4.508;2023-08-06T03:50:30;100635.03;;;14.25;100.00
49030;BME280;43337;52.070;4.508;2023-08-06T03:52:56;100665.38;;;14.33;100.00
49030;BME280;43337;52.070;4.508;2023-08-06T03:55:21;100622.22;;;14.03;100.00
49030;BME280;43337;52.070;4.508;2023-08-06T03:57:48;100652.47;;;13.99;100.00
49030;BME280;43337;52.070;4.508;2023-08-06T04:00:14;100674.06;;;14.07;100.00
49030;BME280;43337;52.070;4.508;2023-08-06T04:02:39;100655.84;;;13.86;100.00
49030;BME280;43337;52.070;4.508;2023-08-06T04:05:06;100648.63;;;13.74;100.00
49030;BME280;43337;52.070;4.508;2023-08-06T04:07:32;100674.56;;;13.83;100.00
49030;BME280;43337;52.070;4.508;2023-08-06T04:09:59;100679.38;;;13.77;100.00
49030;BME280;43337;52.070;4.508;2023-08-06T04:12:25;100676.06;;;13.73;100.00
49030;BME280;43337;52.070;4.508;2023-08-06T04:14:51;100667.94;;;13.60;100.00
49030;BME280;43337;52.070;4.508;2023-08-06T04:17:23;100664.56;;;13.58;100.00
49030;BME280;43337;52.070;4.508;2023-08-06T04:19:53;100689.28;;;13.73;100.00
49030;BME280;43337;52.070;4.508;2023-08-06T04:22:18;100694.47;;;13.75;100.00
49030;BME280;43337;52.070;4.508;2023-08-06T04:24:44;100665.56;;;13.56;100.00
49030;BME280;43337;52.070;4.508;2023-08-06T04:27:10;100681.00;;;13.63;100.00
49030;BME280;43337;52.070;4.508;2023-08-06T04:29:37;100704.22;;;13.74;100.00
49030;BME280;43337;52.070;4.508;2023-08-06T04:32:08;100705.06;;;13.75;100.00
49030;BME280;43337;52.070;4.508;2023-08-06T04:34:37;100696.59;;;13.68;100.00
49030;BME280;43337;52.070;4.508;2023-08-06T04:37:03;100698.50;;;13.66;100.00
49030;BME280;43337;52.070;4.508;2023-08-06T04:39:29;100689.31;;;13.57;100.00
49030;BME280;43337;52.070;4.508;2023-08-06T04:41:56;100711.47;;;13.71;100.00
49030;BME280;43337;52.070;4.508;2023-08-06T04:44:22;100691.19;;;13.55;100.00
49030;BME280;43337;52.070;4.508;2023-08-06T04:46:49;100682.75;;;13.49;100.00
49030;BME280;43337;52.070;4.508;2023-08-06T04:49:18;100664.94;;;13.36;100.00
49030;BME280;43337;52.070;4.508;2023-08-06T04:51:43;100687.78;;;13.53;100.00
49030;BME280;43337;52.070;4.508;2023-08-06T04:54:09;100700.75;;;13.58;100.00
49030;BME280;43337;52.070;4.508;2023-08-06T04:56:34;100714.72;;;13.60;100.00
49030;BME280;43337;52.070;4.508;2023-08-06T04:59:00;100709.53;;;13.58;100.00
49030;BME280;43337;52.070;4.508;2023-08-06T05:01:25;100671.84;;;13.39;100.00
49030;BME280;43337;52.070;4.508;2023-08-06T05:03:52;100728.03;;;13.74;100.00
49030;BME280;43337;52.070;4.508;2023-08-06T05:06:17;100732.19;;;13.78;100.00
49030;BME280;43337;52.070;4.508;2023-08-06T05:08:42;100735.78;;;13.77;100.00
49030;BME280;43337;52.070;4.508;2023-08-06T05:11:09;100713.53;;;13.65;100.00
49030;BME280;43337;52.070;4.508;2023-08-06T05:13:34;100740.97;;;13.79;100.00
49030;BME280;43337;52.070;4.508;2023-08-06T05:16:00;100744.47;;;13.79;100.00
49030;BME280;43337;52.070;4.508;2023-08-06T05:18:25;100711.63;;;13.67;100.00
49030;BME280;43337;52.070;4.508;2023-08-06T05:20:50;100718.66;;;13.68;100.00
49030;BME280;43337;52.070;4.508;2023-08-06T05:23:16;100725.38;;;13.74;100.00
49030;BME280;43337;52.070;4.508;2023-08-06T05:25:42;100740.97;;;13.79;100.00
49030;BME280;43337;52.070;4.508;2023-08-06T05:28:07;100740.22;;;13.77;100.00
49030;BME280;43337;52.070;4.508;2023-08-06T05:30:33;100741.25;;;13.74;100.00
49030;BME280;43337;52.070;4.508;2023-08-06T05:32:58;100738.59;;;13.74;100.00
49030;BME280;43337;52.070;4.508;2023-08-06T05:35:26;100759.00;;;13.88;100.00
49030;BME280;43337;52.070;4.508;2023-08-06T05:37:52;100734.09;;;13.76;100.00
49030;BME280;43337;52.070;4.508;2023-08-06T05:40:18;100749.53;;;13.84;100.00
49030;BME280;43337;52.070;4.508;2023-08-06T05:42:43;100768.38;;;13.93;100.00
49030;BME280;43337;52.070;4.508;2023-08-06T05:45:09;100764.19;;;13.89;100.00
49030;BME280;43337;52.070;4.508;2023-08-06T05:47:35;100773.66;;;13.93;100.00
49030;BME280;43337;52.070;4.508;2023-08-06T05:50:01;100770.84;;;13.97;100.00
49030;BME280;43337;52.070;4.508;2023-08-06T05:52:26;100757.03;;;13.91;100.00
49030;BME280;43337;52.070;4.508;2023-08-06T05:54:52;100759.69;;;13.91;100.00
49030;BME280;43337;52.070;4.508;2023-08-06T05:57:17;100793.94;;;14.09;100.00
49030;BME280;43337;52.070;4.508;2023-08-06T05:59:43;100794.81;;;14.09;100.00
49030;BME280;43337;52.070;4.508;2023-08-06T06:02:08;100795.75;;;14.08;100.00
49030;BME280;43337;52.070;4.508;2023-08-06T06:04:33;100765.72;;;13.93;100.00
49030;BME280;43337;52.070;4.508;2023-08-06T06:06:59;100805.81;;;14.17;100.00
49030;BME280;43337;52.070;4.508;2023-08-06T06:09:24;100785.44;;;14.04;100.00
49030;BME280;43337;52.070;4.508;2023-08-06T06:11:50;100815.28;;;14.22;100.00
49030;BME280;43337;52.070;4.508;2023-08-06T06:14:17;100797.84;;;14.17;100.00
49030;BME280;43337;52.070;4.508;2023-08-06T06:16:42;100810.66;;;14.25;100.00
49030;BME280;43337;52.070;4.508;2023-08-06T06:19:07;100799.16;;;14.10;100.00
49030;BME280;43337;52.070;4.508;2023-08-06T06:21:33;100795.41;;;14.14;100.00
49030;BME280;43337;52.070;4.508;2023-08-06T06:23:58;100780.13;;;14.04;100.00
49030;BME280;43337;52.070;4.508;2023-08-06T06:26:24;100802.22;;;14.19;100.00
49030;BME280;43337;52.070;4.508;2023-08-06T06:28:49;100802.03;;;14.22;100.00
49030;BME280;43337;52.070;4.508;2023-08-06T06:31:14;100799.31;;;14.23;100.00
49030;BME280;43337;52.070;4.508;2023-08-06T06:33:41;100789.84;;;14.19;100.00
49030;BME280;43337;52.070;4.508;2023-08-06T06:36:07;100807.09;;;14.26;100.00
49030;BME280;43337;52.070;4.508;2023-08-06T06:38:33;100829.41;;;14.36;100.00
49030;BME280;43337;52.070;4.508;2023-08-06T06:41:00;100809.91;;;14.23;100.00
49030;BME280;43337;52.070;4.508;2023-08-06T06:43:28;100808.84;;;14.26;100.00
49030;BME280;43337;52.070;4.508;2023-08-06T06:45:56;100806.19;;;14.26;100.00
49030;BME280;43337;52.070;4.508;2023-08-06T06:48:22;100814.75;;;14.31;100.00
49030;BME280;43337;52.070;4.508;2023-08-06T06:50:47;100817.69;;;14.26;100.00
49030;BME280;43337;52.070;4.508;2023-08-06T06:53:14;100820.50;;;14.23;100.00
49030;BME280;43337;52.070;4.508;2023-08-06T06:55:39;100833.13;;;14.34;100.00
49030;BME280;43337;52.070;4.508;2023-08-06T06:58:05;100813.75;;;14.17;100.00
49030;BME280;43337;52.070;4.508;2023-08-06T07:00:30;100853.94;;;14.40;100.00
49030;BME280;43337;52.070;4.508;2023-08-06T07:02:56;100825.69;;;14.25;100.00
49030;BME280;43337;52.070;4.508;2023-08-06T07:05:21;100830.03;;;14.26;100.00
49030;BME280;43337;52.070;4.508;2023-08-06T07:07:46;100812.22;;;14.13;100.00
49030;BME280;43337;52.070;4.508;2023-08-06T07:10:12;100824.25;;;14.19;100.00
49030;BME280;43337;52.070;4.508;2023-08-06T07:12:37;100822.53;;;14.18;100.00
49030;BME280;43337;52.070;4.508;2023-08-06T07:15:06;100816.81;;;14.10;100.00
49030;BME280;43337;52.070;4.508;2023-08-06T07:17:31;100840.06;;;14.21;100.00
49030;BME280;43337;52.070;4.508;2023-08-06T07:19:57;100850.13;;;14.30;100.00
49030;BME280;43337;52.070;4.508;2023-08-06T07:22:22;100836.66;;;14.19;100.00
49030;BME280;43337;52.070;4.508;2023-08-06T07:24:48;100832.47;;;14.14;100.00
49030;BME280;43337;52.070;4.508;2023-08-06T07:27:13;100869.06;;;14.38;100.00
49030;BME280;43337;52.070;4.508;2023-08-06T07:29:38;100858.25;;;14.27;100.00
49030;BME280;43337;52.070;4.508;2023-08-06T07:32:06;100840.50;;;14.13;100.00
49030;BME280;43337;52.070;4.508;2023-08-06T07:34:32;100849.63;;;14.23;100.00
49030;BME280;43337;52.070;4.508;2023-08-06T07:36:57;100853.97;;;14.24;100.00
49030;BME280;43337;52.070;4.508;2023-08-06T07:39:24;100846.88;;;14.25;100.00
49030;BME280;43337;52.070;4.508;2023-08-06T07:41:50;100866.44;;;14.38;100.00
49030;BME280;43337;52.070;4.508;2023-08-06T07:44:16;100847.66;;;14.27;100.00
49030;BME280;43337;52.070;4.508;2023-08-06T07:46:41;100863.50;;;14.43;100.00
49030;BME280;43337;52.070;4.508;2023-08-06T07:49:09;100848.91;;;14.35;100.00
49030;BME280;43337;52.070;4.508;2023-08-06T07:51:36;100859.22;;;14.40;100.00
49030;BME280;43337;52.070;4.508;2023-08-06T07:54:02;100830.81;;;14.28;100.00
49030;BME280;43337;52.070;4.508;2023-08-06T07:56:28;100825.41;;;14.29;100.00
49030;BME280;43337;52.070;4.508;2023-08-06T07:58:53;100869.81;;;14.56;100.00
49030;BME280;43337;52.070;4.508;2023-08-06T08:01:20;100848.72;;;14.54;100.00
49030;BME280;43337;52.070;4.508;2023-08-06T08:03:48;100828.28;;;14.40;100.00
49030;BME280;43337;52.070;4.508;2023-08-06T08:06:14;100852.06;;;14.58;100.00
49030;BME280;43337;52.070;4.508;2023-08-06T08:08:40;100866.75;;;14.78;100.00
49030;BME280;43337;52.070;4.508;2023-08-06T08:11:10;100862.59;;;14.74;100.00
49030;BME280;43337;52.070;4.508;2023-08-06T08:13:35;100889.81;;;14.92;100.00
49030;BME280;43337;52.070;4.508;2023-08-06T08:16:01;100887.91;;;14.94;100.00
49030;BME280;43337;52.070;4.508;2023-08-06T08:18:27;100855.31;;;14.77;100.00
49030;BME280;43337;52.070;4.508;2023-08-06T08:20:55;100888.00;;;14.92;100.00
49030;BME280;43337;52.070;4.508;2023-08-06T08:23:21;100895.56;;;14.98;100.00
49030;BME280;43337;52.070;4.508;2023-08-06T08:25:46;100873.31;;;14.86;100.00
49030;BME280;43337;52.070;4.508;2023-08-06T08:28:12;100868.09;;;14.85;100.00
49030;BME280;43337;52.070;4.508;2023-08-06T08:30:37;100897.88;;;15.04;100.00
49030;BME280;43337;52.070;4.508;2023-08-06T08:33:04;100908.38;;;15.06;100.00
49030;BME280;43337;52.070;4.508;2023-08-06T08:35:30;100877.00;;;14.98;100.00
49030;BME280;43337;52.070;4.508;2023-08-06T08:37:55;100870.78;;;14.99;100.00
49030;BME280;43337;52.070;4.508;2023-08-06T08:40:23;100868.88;;;15.01;100.00
49030;BME280;43337;52.070;4.508;2023-08-06T08:42:54;100901.97;;;15.24;100.00
49030;BME280;43337;52.070;4.508;2023-08-06T08:45:22;100861.03;;;15.00;100.00
49030;BME280;43337;52.070;4.508;2023-08-06T08:47:48;100874.28;;;15.14;100.00
49030;BME280;43337;52.070;4.508;2023-08-06T08:50:14;100906.44;;;15.38;100.00
49030;BME280;43337;52.070;4.508;2023-08-06T08:52:40;100867.78;;;15.20;100.00
49030;BME280;43337;52.070;4.508;2023-08-06T08:55:09;100871.09;;;15.23;100.00
49030;BME280;43337;52.070;4.508;2023-08-06T08:57:35;100909.28;;;15.49;100.00
49030;BME280;43337;52.070;4.508;2023-08-06T09:00:00;100881.97;;;15.33;100.00
49030;BME280;43337;52.070;4.508;2023-08-06T09:02:28;100881.59;;;15.39;100.00
49030;BME280;43337;52.070;4.508;2023-08-06T09:05:01;100920.09;;;15.60;100.00
49030;BME280;43337;52.070;4.508;2023-08-06T09:07:33;100891.44;;;15.51;100.00
49030;BME280;43337;52.070;4.508;2023-08-06T09:10:02;100897.25;;;15.58;100.00
49030;BME280;43337;52.070;4.508;2023-08-06T09:12:29;100892.88;;;15.57;100.00
49030;BME280;43337;52.070;4.508;2023-08-06T09:14:55;100915.94;;;15.71;100.00
49030;BME280;43337;52.070;4.508;2023-08-06T09:17:20;100890.31;;;15.55;100.00
49030;BME280;43337;52.070;4.508;2023-08-06T09:19:46;100908.25;;;15.66;100.00
49030;BME280;43337;52.070;4.508;2023-08-06T09:22:13;100921.53;;;15.80;100.00
49030;BME280;43337;52.070;4.508;2023-08-06T09:24:41;100868.53;;;15.50;100.00
49030;BME280;43337;52.070;4.508;2023-08-06T09:27:12;100868.22;;;15.55;100.00
49030;BME280;43337;52.070;4.508;2023-08-06T09:29:43;100914.41;;;15.95;100.00
49030;BME280;43337;52.070;4.508;2023-08-06T09:32:08;100908.44;;;15.92;100.00
49030;BME280;43337;52.070;4.508;2023-08-06T09:34:34;100901.59;;;15.88;100.00
49030;BME280;43337;52.070;4.508;2023-08-06T09:37:00;100903.78;;;15.95;100.00
49030;BME280;43337;52.070;4.508;2023-08-06T09:39:27;100908.00;;;16.12;100.00
49030;BME280;43337;52.070;4.508;2023-08-06T09:41:59;100910.66;;;16.12;100.00
49030;BME280;43337;52.070;4.508;2023-08-06T09:44:26;100917.31;;;16.32;100.00
49030;BME280;43337;52.070;4.508;2023-08-06T09:46:59;100957.59;;;16.53;100.00
49030;BME280;43337;52.070;4.508;2023-08-06T09:49:27;100960.09;;;16.69;100.00
49030;BME280;43337;52.070;4.508;2023-08-06T09:51:54;100914.75;;;16.57;100.00
49030;BME280;43337;52.070;4.508;2023-08-06T09:54:28;100944.22;;;16.94;100.00
49030;BME280;43337;52.070;4.508;2023-08-06T09:56:56;100936.38;;;16.93;100.00
49030;BME280;43337;52.070;4.508;2023-08-06T09:59:25;100953.81;;;16.97;100.00
49030;BME280;43337;52.070;4.508;2023-08-06T10:01:54;100927.97;;;16.72;100.00
49030;BME280;43337;52.070;4.508;2023-08-06T10:04:20;100944.34;;;16.66;100.00
49030;BME280;43337;52.070;4.508;2023-08-06T10:06:50;100943.69;;;16.62;100.00
49030;BME280;43337;52.070;4.508;2023-08-06T10:09:24;100973.56;;;16.80;100.00
49030;BME280;43337;52.070;4.508;2023-08-06T10:11:52;100963.94;;;16.92;100.00
49030;BME280;43337;52.070;4.508;2023-08-06T10:14:32;100954.25;;;17.03;100.00
49030;BME280;43337;52.070;4.508;2023-08-06T10:16:59;100936.38;;;17.05;100.00
49030;BME280;43337;52.070;4.508;2023-08-06T10:19:25;100959.19;;;17.35;100.00
49030;BME280;43337;52.070;4.508;2023-08-06T10:22:11;100976.44;;;17.55;100.00
49030;BME280;43337;52.070;4.508;2023-08-06T10:24:54;100981.97;;;17.52;100.00
49030;BME280;43337;52.070;4.508;2023-08-06T10:27:34;100976.00;;;17.36;100.00
49030;BME280;43337;52.070;4.508;2023-08-06T10:30:22;100984.00;;;17.36;100.00
49030;BME280;43337;52.070;4.508;2023-08-06T10:32:49;100943.94;;;17.12;100.00
49030;BME280;43337;52.070;4.508;2023-08-06T10:35:35;100981.22;;;17.24;100.00
49030;BME280;43337;52.070;4.508;2023-08-06T10:38:12;100934.66;;;16.92;100.00
49030;BME280;43337;52.070;4.508;2023-08-06T10:43:33;100965.94;;;17.01;100.00
49030;BME280;43337;52.070;4.508;2023-08-06T10:46:02;100948.06;;;16.90;100.00
49030;BME280;43337;52.070;4.508;2023-08-06T10:48:36;100982.75;;;17.01;100.00
49030;BME280;43337;52.070;4.508;2023-08-06T10:51:02;100945.97;;;16.68;100.00
49030;BME280;43337;52.070;4.508;2023-08-06T10:53:30;100937.63;;;16.60;100.00
49030;BME280;43337;52.070;4.508;2023-08-06T10:55:56;100971.47;;;16.71;100.00
49030;BME280;43337;52.070;4.508;2023-08-06T10:58:21;100948.56;;;16.55;100.00
49030;BME280;43337;52.070;4.508;2023-08-06T11:00:47;100997.50;;;16.80;100.00
49030;BME280;43337;52.070;4.508;2023-08-06T11:03:12;100940.03;;;16.50;100.00
49030;BME280;43337;52.070;4.508;2023-08-06T11:05:48;100942.72;;;16.63;100.00
49030;BME280;43337;52.070;4.508;2023-08-06T11:08:25;100947.91;;;16.79;100.00
49030;BME280;43337;52.070;4.508;2023-08-06T11:10:51;100979.91;;;17.04;100.00
49030;BME280;43337;52.070;4.508;2023-08-06T11:13:17;100928.06;;;16.84;100.00
49030;BME280;43337;52.070;4.508;2023-08-06T11:15:44;100984.06;;;17.21;100.00
49030;BME280;43337;52.070;4.508;2023-08-06T11:18:10;100950.25;;;17.11;100.00
49030;BME280;43337;52.070;4.508;2023-08-06T11:20:36;100946.41;;;17.15;100.00
49030;BME280;43337;52.070;4.508;2023-08-06T11:23:02;100972.81;;;17.43;100.00
49030;BME280;43337;52.070;4.508;2023-08-06T11:25:29;100980.91;;;17.54;100.00
49030;BME280;43337;52.070;4.508;2023-08-06T11:27:55;100972.16;;;17.52;100.00
49030;BME280;43337;52.070;4.508;2023-08-06T11:30:26;100964.09;;;17.54;100.00
49030;BME280;43337;52.070;4.508;2023-08-06T11:32:51;100952.47;;;17.55;100.00
49030;BME280;43337;52.070;4.508;2023-08-06T11:35:17;100962.91;;;17.71;100.00
49030;BME280;43337;52.070;4.508;2023-08-06T11:37:45;100970.16;;;17.81;100.00
49030;BME280;43337;52.070;4.508;2023-08-06T11:40:14;100973.66;;;17.95;100.00
49030;BME280;43337;52.070;4.508;2023-08-06T11:42:40;100999.19;;;18.23;100.00
49030;BME280;43337;52.070;4.508;2023-08-06T11:45:08;100973.06;;;18.28;100.00
49030;BME280;43337;52.070;4.508;2023-08-06T11:47:39;100997.19;;;18.50;100.00
49030;BME280;43337;52.070;4.508;2023-08-06T11:50:30;100975.03;;;18.37;100.00
49030;BME280;43337;52.070;4.508;2023-08-06T11:55:26;100982.16;;;18.49;100.00
49030;BME280;43337;52.070;4.508;2023-08-06T11:57:54;100967.44;;;18.44;100.00
49030;BME280;43337;52.070;4.508;2023-08-06T12:00:26;100961.22;;;18.56;100.00
49030;BME280;43337;52.070;4.508;2023-08-06T12:02:52;100968.41;;;18.67;100.00
49030;BME280;43337;52.070;4.508;2023-08-06T12:05:22;100989.75;;;18.80;100.00
49030;BME280;43337;52.070;4.508;2023-08-06T12:08:01;101002.34;;;18.77;100.00
49030;BME280;43337;52.070;4.508;2023-08-06T12:10:30;100971.44;;;18.62;100.00
49030;BME280;43337;52.070;4.508;2023-08-06T12:12:58;100983.34;;;18.69;100.00
49030;BME280;43337;52.070;4.508;2023-08-06T12:15:24;101004.88;;;18.79;100.00
49030;BME280;43337;52.070;4.508;2023-08-06T12:17:51;100983.56;;;18.66;100.00
49030;BME280;43337;52.070;4.508;2023-08-06T12:20:16;101011.00;;;18.68;100.00
49030;BME280;43337;52.070;4.508;2023-08-06T12:22:42;100985.06;;;18.46;100.00
49030;BME280;43337;52.070;4.508;2023-08-06T12:25:09;101004.19;;;18.27;100.00
49030;BME280;43337;52.070;4.508;2023-08-06T12:27:43;101005.97;;;17.90;100.00
49030;BME280;43337;52.070;4.508;2023-08-06T12:30:10;101025.13;;;17.57;100.00
49030;BME280;43337;52.070;4.508;2023-08-06T12:32:36;101020.59;;;17.32;100.00
49030;BME280;43337;52.070;4.508;2023-08-06T12:35:03;101031.13;;;17.21;100.00
49030;BME280;43337;52.070;4.508;2023-08-06T12:37:33;101005.53;;;17.05;100.00
49030;BME280;43337;52.070;4.508;2023-08-06T12:39:58;101039.75;;;17.24;100.00
49030;BME280;43337;52.070;4.508;2023-08-06T12:42:24;101039.34;;;17.30;100.00
49030;BME280;43337;52.070;4.508;2023-08-06T12:44:49;101022.31;;;17.33;100.00
49030;BME280;43337;52.070;4.508;2023-08-06T12:47:16;101039.69;;;17.51;100.00
49030;BME280;43337;52.070;4.508;2023-08-06T12:49:42;101047.28;;;17.57;100.00